Bowman, California
Current Conditions -  °F | °C
As of 1:45 PM on Monday 22 Dec 2014 (Local Time) from KTRK Reporting Station
Scattered Clouds Scattered Clouds  
Wind Chill: 52°   Ceiling: Unl
Heat Index: 52°   Visibility: 10mi
Dew Point: 37°   Wind: 6mph
Humidity: 58%   Direction: 10°N
Pressure: 30.32"   Gusts: NA
Location:  39.2432°N, 120.071°W
Report Text: KTRK 222145Z 01005KT 10SM SCT140 11/03 A3032 RMK NOSPECI
Loading
Personal Weather Stations






























Interactive Weather Map New forecast layout! Learn more

10-Day Weather Forecast

Advertisements
Track Severe Weather on mobile